M I D A S
Marine Information and Data Acquisition System
Tripno 693 of the Zeeleeuw from 2004-04-13 07:03:55 to 2004-04-13 14:33:18
Back to CruiseResearch ActivitiesStationsMapUnderway DataData graphs

EquipmentUnitsComment
TimeDGPSUTC
LatitudeDGPSDM.mWGS84
LongitudeDGPSDM.mWGS84
HeadingGyrodeg 
SOGDGPSknotsSpeed over ground
COGDGPSdegCourse over ground
DepthEcho soundermeters200 kHz
Missing or incorrect values are displayed as -999
Navigation data collected by the RV Zeeleeuw from 2004-04-13 07:03:55 to 2004-04-13 14:33:18
Time Latitude Longitude Heading SOG COG Depth
2004-04-13 07:04:55 51°13.597 2°56.094 112.6 1.5 288 9.3
2004-04-13 07:05:56 51°13.618 2°56.011 121.2 4.3 295 -999
2004-04-13 07:06:56 51°13.66 2°55.899 127.7 5.3 303 -999
2004-04-13 07:07:56 51°13.701 2°55.78 115.4 4.6 294 -999
2004-04-13 07:08:55 51°13.71 2°55.749 73.3 1 267 15.8
2004-04-13 07:09:55 51°13.722 2°55.741 19.9 2.3 7 13.8
2004-04-13 07:10:55 51°13.754 2°55.716 328.4 4.3 323 11.5
2004-04-13 07:11:55 51°13.835 2°55.632 336.3 6.8 332 12.2
2004-04-13 07:12:55 51°13.944 2°55.549 340.4 7.5 335 11.8
2004-04-13 07:13:55 51°14.063 2°55.462 341.1 8.3 336 12.7
2004-04-13 07:14:55 51°14.207 2°55.342 332.7 10.7 325 13.1
2004-04-13 07:15:55 51°14.333 2°55.128 310.2 11.7 304 13.1
2004-04-13 07:16:55 51°14.455 2°54.868 320.4 12.9 323 12.8
2004-04-13 07:17:55 51°14.666 2°54.779 6.1 14.1 7 11.6
2004-04-13 07:18:55 51°14.894 2°54.888 20.7 14.4 16 11.1
2004-04-13 07:19:55 51°15.128 2°54.958 11.1 14.2 8 10.4
2004-04-13 07:20:55 51°15.364 2°55.005 10.5 14.4 9 10.4
2004-04-13 07:21:55 51°15.575 2°55.182 42.9 14.6 42 11
2004-04-13 07:22:55 51°15.742 2°55.465 54.6 14.7 51 11.1
2004-04-13 07:23:55 51°15.89 2°55.773 58.8 14.6 53 11.1
2004-04-13 07:24:56 51°16.04 2°56.088 58 14.7 53 11.2
2004-04-13 07:25:55 51°16.179 2°56.402 60.7 14.7 55 11.3
2004-04-13 07:26:55 51°16.317 2°56.722 61.1 14.6 56 11.5
2004-04-13 07:27:55 51°16.453 2°57.039 61 14.5 55 11.5
2004-04-13 07:28:56 51°16.593 2°57.362 60.9 14.6 55 11.5
2004-04-13 07:29:56 51°16.729 2°57.682 61.3 14.5 56 11.5
2004-04-13 07:30:55 51°16.864 2°57.996 61.2 14.6 56 11.3
2004-04-13 07:31:55 51°17 2°58.315 61.9 14.5 55 11.2
2004-04-13 07:32:55 51°17.136 2°58.633 61.1 14.5 56 11.3
2004-04-13 07:33:55 51°17.271 2°58.953 61.2 14.6 56 11
2004-04-13 07:34:55 51°17.407 2°59.276 61.3 14.7 56 10.8
2004-04-13 07:35:55 51°17.544 2°59.599 60.7 14.7 56 10.7
2004-04-13 07:36:55 51°17.68 2°59.922 61.6 14.7 57 10.6
2004-04-13 07:37:55 51°17.815 3°0.246 61.7 14.5 56 10.1
2004-04-13 07:38:55 51°17.949 3°0.569 61.6 14.6 56 10.1
2004-04-13 07:39:56 51°18.086 3°0.897 62.7 14.6 57 9.9
2004-04-13 07:40:55 51°18.22 3°1.215 61.8 14.6 56 9.7
2004-04-13 07:41:55 51°18.358 3°1.534 60.9 14.6 55 9.6
2004-04-13 07:42:55 51°18.496 3°1.854 61.6 14.6 57 9.8
2004-04-13 07:43:55 51°18.633 3°2.175 61.5 14.6 56 9.8
2004-04-13 07:44:55 51°18.771 3°2.498 61.4 14.7 57 9.7
2004-04-13 07:45:55 51°18.905 3°2.823 60.2 14.6 55 9.6
2004-04-13 07:46:55 51°19.04 3°3.144 60.8 14.6 56 9.6
2004-04-13 07:47:55 51°19.174 3°3.467 61.5 14.7 57 9.6
2004-04-13 07:48:55 51°19.309 3°3.789 60.9 14.6 57 10
2004-04-13 07:49:55 51°19.444 3°4.11 61.8 14.6 57 9.7
2004-04-13 07:50:55 51°19.579 3°4.435 61.2 14.6 57 9.9
2004-04-13 07:51:55 51°19.711 3°4.761 61 14.6 57 9.7
2004-04-13 07:52:55 51°19.845 3°5.085 60.9 14.6 56 9.7
2004-04-13 07:53:55 51°19.979 3°5.409 60.8 14.5 56 9.7
2004-04-13 07:54:56 51°20.115 3°5.737 62 14.5 57 9.6
2004-04-13 07:55:55 51°20.246 3°6.055 61.5 14.5 57 9.5
2004-04-13 07:56:55 51°20.379 3°6.377 61.6 14.4 55 9.4
2004-04-13 07:57:55 51°20.536 3°6.666 53.1 14.4 48 9.3
2004-04-13 07:58:56 51°20.698 3°6.961 53.8 14.5 49 9.4
2004-04-13 07:59:55 51°20.856 3°7.245 52.8 14.5 49 9.3
2004-04-13 08:00:55 51°21.014 3°7.536 53.4 14.5 49 9.4
2004-04-13 08:01:55 51°21.171 3°7.829 57 14.5 54 9.8
2004-04-13 08:02:55 51°21.305 3°8.149 60 14.6 55 10.3
2004-04-13 08:03:55 51°21.442 3°8.472 60.9 14.6 56 10.9
2004-04-13 08:04:55 51°21.57 3°8.802 65.5 14.5 61 11.6
2004-04-13 08:05:56 51°21.693 3°9.142 63.9 14.6 60 12.5
2004-04-13 08:06:55 51°21.813 3°9.47 63.8 14.6 59 13.5
2004-04-13 08:07:55 51°21.936 3°9.805 64.4 14.5 60 14.7
2004-04-13 08:08:55 51°22.046 3°10.144 67.5 14.4 63 15.7
2004-04-13 08:09:55 51°22.135 3°10.497 78.4 14.4 74 16.8
2004-04-13 08:10:55 51°22.203 3°10.865 77.8 14.4 73 19.4
2004-04-13 08:11:55 51°22.273 3°11.231 77.8 14.5 72 17.7
2004-04-13 08:12:55 51°22.344 3°11.598 77.4 14.5 73 17.2
2004-04-13 08:13:56 51°22.405 3°11.979 83.1 14.5 77 16.9
2004-04-13 08:14:55 51°22.455 3°12.353 82.5 14.6 79 15.9
2004-04-13 08:15:55 51°22.504 3°12.732 82.6 14.4 78 15.1
2004-04-13 08:16:55 51°22.563 3°13.102 78.1 14.4 74 14.1
2004-04-13 08:17:55 51°22.629 3°13.469 78.2 14.3 73 13.4
2004-04-13 08:18:55 51°22.696 3°13.835 78.3 14.3 74 12.5
2004-04-13 08:19:55 51°22.761 3°14.2 78.3 14.2 74 11.8
2004-04-13 08:20:55 51°22.828 3°14.564 78 14.3 74 11.3
2004-04-13 08:21:55 51°22.893 3°14.929 78.3 14.2 75 10.9
2004-04-13 08:22:56 51°22.958 3°15.301 77.7 14.2 74 10.6
2004-04-13 08:23:56 51°23.022 3°15.666 78.7 14.3 76 10.3
2004-04-13 08:24:55 51°23.062 3°16.03 84.9 14 80 10.1
2004-04-13 08:25:55 51°23.102 3°16.399 84.1 14 81 9.9
2004-04-13 08:26:55 51°23.142 3°16.769 84.6 14.1 81 9.9
2004-04-13 08:27:55 51°23.185 3°17.141 82.2 14.2 78 9.9
2004-04-13 08:28:55 51°23.236 3°17.51 81.8 14.2 78 10.2
2004-04-13 08:29:55 51°23.287 3°17.88 81.8 14.2 77 11
2004-04-13 08:30:56 51°23.337 3°18.253 82.7 14 78 11.3
2004-04-13 08:31:55 51°23.388 3°18.612 82.1 14 76 11.9
2004-04-13 08:32:55 51°23.44 3°18.975 82.3 14 77 12.3
2004-04-13 08:33:55 51°23.491 3°19.337 82.3 13.9 76 12.6
2004-04-13 08:34:55 51°23.542 3°19.697 81.9 13.8 78 12.9
2004-04-13 08:35:55 51°23.59 3°20.054 81.8 13.7 77 13.1
2004-04-13 08:36:55 51°23.639 3°20.409 81.6 13.7 77 13.6
2004-04-13 08:37:55 51°23.688 3°20.764 82.1 13.6 77 14
2004-04-13 08:38:55 51°23.736 3°21.12 82.7 13.8 78 14.4
2004-04-13 08:39:56 51°23.783 3°21.484 84.1 13.8 80 14.8
2004-04-13 08:40:55 51°23.816 3°21.84 85.7 13.7 82 15.1
2004-04-13 08:41:55 51°23.852 3°22.202 84.9 13.8 81 15.3
2004-04-13 08:42:55 51°23.888 3°22.565 85.6 13.9 80 15.6
2004-04-13 08:43:56 51°23.927 3°22.934 85.5 13.8 80 15.9
2004-04-13 08:44:55 51°23.964 3°23.289 85.1 13.9 81 16.2
2004-04-13 08:45:55 51°24.002 3°23.65 85.6 13.7 81 16.4
2004-04-13 08:46:55 51°24.041 3°24.009 85.1 13.7 81 16.6
2004-04-13 08:47:55 51°24.08 3°24.367 85.7 13.6 80 16.7
2004-04-13 08:48:56 51°24.121 3°24.731 85.2 13.6 79 16.8
2004-04-13 08:49:55 51°24.159 3°25.084 85.2 13.7 80 16.8
2004-04-13 08:50:55 51°24.198 3°25.443 85.3 13.7 82 16.8
2004-04-13 08:51:55 51°24.237 3°25.802 85.7 13.7 79 16.7
2004-04-13 08:52:56 51°24.29 3°26.16 81.2 13.5 77 16.4
2004-04-13 08:53:55 51°24.344 3°26.504 80.9 13.6 75 16.4
2004-04-13 08:54:55 51°24.398 3°26.853 81.1 13.5 76 16.5
2004-04-13 08:55:55 51°24.453 3°27.203 80.8 13.6 76 17
2004-04-13 08:56:55 51°24.492 3°27.558 85.3 13.5 80 19.4
2004-04-13 08:57:56 51°24.53 3°27.914 85.8 13.3 81 17.4
2004-04-13 08:58:55 51°24.559 3°28.256 87.4 13.2 82 16.8
2004-04-13 08:59:55 51°24.587 3°28.605 87.7 13.3 83 17.4
2004-04-13 09:00:55 51°24.615 3°28.955 87.1 13.3 82 17.6
2004-04-13 09:01:56 51°24.642 3°29.311 87.6 13.1 83 18.6
2004-04-13 09:02:56 51°24.672 3°29.658 84.4 13.1 80 20.2
2004-04-13 09:03:55 51°24.711 3°29.997 83.9 13.2 79 22.5
2004-04-13 09:04:55 51°24.742 3°30.343 88 12.9 82 24.2
2004-04-13 09:05:56 51°24.762 3°30.684 91.1 12.5 85 25.7
2004-04-13 09:06:54 51°24.778 3°31.001 90.7 12.3 85 25.2
2004-04-13 09:07:56 51°24.798 3°31.338 90.2 12.3 84 25
2004-04-13 09:08:56 51°24.817 3°31.666 91 12.5 85 24.6
2004-04-13 09:09:55 51°24.836 3°31.993 90.1 12.5 85 25.3
2004-04-13 09:10:56 51°24.859 3°32.328 90.2 12.5 84 25.2
2004-04-13 09:11:55 51°24.883 3°32.652 90.7 12.6 83 26.2
2004-04-13 09:12:55 51°24.906 3°32.987 90.6 12.8 84 25.6
2004-04-13 09:13:55 51°24.934 3°33.328 86.9 12.9 81 24.2
2004-04-13 09:14:56 51°24.973 3°33.67 85.8 12.7 80 23
2004-04-13 09:15:55 51°25.006 3°33.997 88.7 12.6 83 22.8
2004-04-13 09:16:55 51°25.026 3°34.323 89.8 11.3 84 22.6
2004-04-13 09:17:55 51°25.056 3°34.596 84.1 9.1 78 23.4
2004-04-13 09:18:56 51°25.06 3°34.786 100.4 5.2 98 23.3
2004-04-13 09:19:55 51°25.002 3°34.851 173.8 2.5 192 22
2004-04-13 09:20:56 51°25.005 3°34.833 205.4 0.7 319 -999
2004-04-13 09:21:56 51°25.005 3°34.811 219.1 1.1 254 22.8
2004-04-13 09:22:55 51°24.991 3°34.756 251 2.6 255 22.2
2004-04-13 09:23:55 51°24.984 3°34.69 263.6 2.5 265 22
2004-04-13 09:24:55 51°24.98 3°34.622 264 2.7 265 21.8
2004-04-13 09:25:56 51°24.975 3°34.549 256.2 2.7 261 21.4
2004-04-13 09:26:55 51°24.967 3°34.481 247.9 2.6 259 21.3
2004-04-13 09:27:55 51°24.957 3°34.415 240.9 2.5 256 20.9
2004-04-13 09:28:56 51°24.945 3°34.349 237.9 2.5 254 20.8
2004-04-13 09:29:56 51°24.933 3°34.286 235.5 2.5 253 20.2
2004-04-13 09:30:56 51°24.921 3°34.222 233.6 2.5 251 20.1
2004-04-13 09:31:55 51°24.908 3°34.16 230.3 2.5 250 19.8
2004-04-13 09:32:56 51°24.893 3°34.097 226.5 2.5 249 19.4
2004-04-13 09:33:55 51°24.878 3°34.038 220.8 2.4 246 19
2004-04-13 09:34:55 51°24.861 3°33.98 215 2.3 241 19.1
2004-04-13 09:35:55 51°24.821 3°33.956 148.2 2.9 159 19.3
2004-04-13 09:36:55 51°24.831 3°34.018 54.4 4.3 19 18.8
2004-04-13 09:37:56 51°24.916 3°33.942 325 7.7 309 20.4
2004-04-13 09:38:56 51°24.984 3°33.739 306.3 9.2 298 22.8
2004-04-13 09:39:55 51°25.066 3°33.503 308 10.9 299 24.4
2004-04-13 09:40:55 51°25.165 3°33.228 307.7 14.3 299 25.3
2004-04-13 09:41:55 51°25.277 3°32.869 303 15.3 296 26.3
2004-04-13 09:42:55 51°25.379 3°32.499 300.1 15.2 293 26.8
2004-04-13 09:43:55 51°25.479 3°32.127 300.7 15.2 293 25.8
2004-04-13 09:44:56 51°25.581 3°31.749 300.2 15.3 292 22.6
2004-04-13 09:45:55 51°25.675 3°31.378 299.6 15.4 293 23.4
2004-04-13 09:46:55 51°25.774 3°31.001 299.4 15.4 292 22.6
2004-04-13 09:47:55 51°25.833 3°30.608 285 15.3 281 21.7
2004-04-13 09:48:55 51°25.885 3°30.209 286.6 15.3 282 21.1
2004-04-13 09:49:55 51°25.937 3°29.815 286.1 15.1 282 19.7
2004-04-13 09:50:55 51°25.992 3°29.427 287 14.9 283 18.5
2004-04-13 09:51:56 51°26.049 3°29.035 287.1 14.9 283 17.4
2004-04-13 09:52:55 51°26.106 3°28.657 287.1 14.8 284 15.5
2004-04-13 09:53:55 51°26.168 3°28.274 287.4 14.9 285 14.2
2004-04-13 09:54:55 51°26.229 3°27.89 287.4 15 284 13.5
2004-04-13 09:55:55 51°26.291 3°27.503 286.9 15 284 12.5
2004-04-13 09:56:55 51°26.383 3°27.132 301.8 15.1 298 11.5
2004-04-13 09:57:56 51°26.498 3°26.805 313.3 10.6 310 10.8
2004-04-13 09:58:55 51°26.583 3°26.708 2.2 3.5 336 10.5
2004-04-13 09:59:56 51°26.606 3°26.668 33.9 1.8 283 10.4
2004-04-13 10:00:55 51°26.634 3°26.657 70.9 1.8 12 10.4
2004-04-13 10:01:56 51°26.65 3°26.677 106 1 63 10.4
2004-04-13 10:02:55 51°26.659 3°26.702 106.3 1.1 64 10.5
2004-04-13 10:03:56 51°26.671 3°26.729 100 1.3 52 10.5
2004-04-13 10:04:55 51°26.688 3°26.755 83.1 1.7 30 10.7
2004-04-13 10:05:56 51°26.721 3°26.769 54 2.4 5 10.7
2004-04-13 10:06:56 51°26.765 3°26.762 25 2.9 346 10.6
2004-04-13 10:07:55 51°26.813 3°26.731 356.2 3.4 330 10.5
2004-04-13 10:08:55 51°26.859 3°26.675 326.9 3.5 316 10.3
2004-04-13 10:09:56 51°26.894 3°26.6 294.4 3.4 300 10.2
2004-04-13 10:10:55 51°26.914 3°26.522 263.1 3.1 286 10
2004-04-13 10:11:55 51°26.92 3°26.45 233.6 2.6 273 9.9
2004-04-13 10:12:55 51°26.918 3°26.392 204.1 1.9 259 9.8
2004-04-13 10:13:55 51°26.907 3°26.357 172.5 1.2 224 9.8
2004-04-13 10:14:55 51°26.889 3°26.351 150.5 1.2 167 9.6
2004-04-13 10:15:55 51°26.868 3°26.366 141.2 1.4 142 9.6
2004-04-13 10:16:56 51°26.826 3°26.442 134.3 5.7 134 9.7
2004-04-13 10:17:56 51°26.743 3°26.57 137.2 7.5 134 9.9
2004-04-13 10:18:56 51°26.658 3°26.694 153.8 5.3 160 10.3
2004-04-13 10:19:56 51°26.601 3°26.695 175.3 2.5 197 10.2
2004-04-13 10:20:55 51°26.57 3°26.679 163.3 1.5 194 10.3
2004-04-13 10:21:55 51°26.551 3°26.672 149.3 0.9 187 10.3
2004-04-13 10:22:56 51°26.541 3°26.674 136.7 0.4 155 10.3
2004-04-13 10:23:56 51°26.537 3°26.678 128.2 0.2 96 10.4
2004-04-13 10:24:57 51°26.538 3°26.683 122.9 0.2 66 10.4
2004-04-13 10:25:56 51°26.541 3°26.688 121.1 0.1 47 10.3
2004-04-13 10:26:55 51°26.544 3°26.692 123.4 0.2 51 10.3
2004-04-13 10:27:56 51°26.544 3°26.697 127.4 0.2 96 10.3
2004-04-13 10:28:56 51°26.541 3°26.702 130.5 0.2 128 10.3
2004-04-13 10:29:56 51°26.538 3°26.708 129.9 0.3 125 10.3
2004-04-13 10:30:56 51°26.536 3°26.715 127.7 0.3 105 10.3
2004-04-13 10:31:56 51°26.535 3°26.724 124.5 0.4 110 10.3
2004-04-13 10:32:55 51°26.534 3°26.734 121.3 0.5 72 10.3
2004-04-13 10:33:56 51°26.535 3°26.748 119.2 0.6 73 10.3
2004-04-13 10:34:55 51°26.508 3°26.771 165 3.6 182 10.4
2004-04-13 10:35:56 51°26.355 3°26.775 172.9 12 176 10.3
2004-04-13 10:36:55 51°26.149 3°26.783 180.5 13.1 186 10.9
2004-04-13 10:37:55 51°25.935 3°26.7 196.8 13.4 202 8.3
2004-04-13 10:38:56 51°25.736 3°26.496 224.2 15 229 15.8
2004-04-13 10:39:56 51°25.64 3°26.128 262.9 15.3 263 17.2
2004-04-13 10:40:56 51°25.656 3°25.719 281.2 15.5 276 17.1
2004-04-13 10:41:55 51°25.665 3°25.313 270.2 15.4 266 17.1
2004-04-13 10:42:55 51°25.635 3°24.912 265.7 15.1 264 11.9
2004-04-13 10:43:56 51°25.626 3°24.504 276.8 15.2 274 14.4
2004-04-13 10:44:56 51°25.644 3°24.097 277.9 15.4 274 12.4
2004-04-13 10:45:57 51°25.658 3°23.68 277.2 15.3 273 11.3
2004-04-13 10:46:55 51°25.673 3°23.286 277.8 15.3 274 10.1
2004-04-13 10:47:56 51°25.688 3°22.873 277.1 15.3 274 9
2004-04-13 10:48:55 51°25.706 3°22.476 275.8 15.2 272 8.5
2004-04-13 10:49:56 51°25.73 3°22.061 282.1 15.6 277 10.1
2004-04-13 10:50:56 51°25.74 3°21.648 272.3 15.4 269 10.7
2004-04-13 10:51:55 51°25.733 3°21.247 271.3 15.3 269 10.9
2004-04-13 10:52:56 51°25.729 3°20.834 271.4 15.3 269 10.8
2004-04-13 10:53:55 51°25.725 3°20.436 272 15.2 270 10.9
2004-04-13 10:54:55 51°25.722 3°20.031 272.5 15.2 269 10.7
2004-04-13 10:55:56 51°25.719 3°19.621 271.5 15.1 269 10.6
2004-04-13 10:56:56 51°25.711 3°19.219 268.5 15 265 10.4
2004-04-13 10:57:56 51°25.689 3°18.82 267.9 15.1 265 10.2
2004-04-13 10:58:56 51°25.667 3°18.42 268.1 15.1 265 9.8
2004-04-13 10:59:56 51°25.644 3°18.023 269.1 14.9 265 9.6
2004-04-13 11:00:55 51°25.622 3°17.633 268.1 15 265 9.4
2004-04-13 11:01:56 51°25.601 3°17.23 267.1 14.9 264 9.2
2004-04-13 11:02:55 51°25.579 3°16.842 267.1 14.8 264 9.1
2004-04-13 11:03:55 51°25.566 3°16.448 270.4 14.8 267 8.8
2004-04-13 11:04:56 51°25.555 3°16.047 272.2 14.8 270 8.5
2004-04-13 11:05:56 51°25.542 3°15.654 266.8 14.8 266 8.4
2004-04-13 11:06:55 51°25.538 3°15.267 270.3 14.7 267 8.5
2004-04-13 11:07:55 51°25.526 3°14.874 273.6 14.9 271 8.5
2004-04-13 11:08:56 51°25.515 3°14.473 268.6 14.9 268 8.6
2004-04-13 11:09:56 51°25.509 3°14.077 267.8 14.9 266 9
2004-04-13 11:10:56 51°25.503 3°13.679 272.1 15 270 9.2
2004-04-13 11:11:57 51°25.495 3°13.274 271.5 14.9 269 9.2
2004-04-13 11:12:56 51°25.507 3°12.883 275.5 14.8 272 9.1
2004-04-13 11:13:55 51°25.524 3°12.495 278.6 14.8 276 8.9
2004-04-13 11:14:56 51°25.547 3°12.098 276.6 14.7 275 8.8
2004-04-13 11:15:56 51°25.588 3°11.717 281.8 14.4 279 8.3
2004-04-13 11:16:56 51°25.676 3°11.367 308.6 14.1 304 7.7
2004-04-13 11:17:56 51°25.809 3°11.063 308.2 13.9 303 7.2
2004-04-13 11:18:56 51°25.975 3°10.812 332 13.9 326 7.5
2004-04-13 11:19:56 51°26.19 3°10.675 355.1 13.9 350 7.9
2004-04-13 11:20:56 51°26.408 3°10.75 36.3 13.5 30 8.4
2004-04-13 11:21:56 51°26.583 3°10.975 48 13.4 40 8.5
2004-04-13 11:22:55 51°26.749 3°11.2 54.6 13.2 48 8.3
2004-04-13 11:23:56 51°26.898 3°11.463 52.3 13.2 44 8.1
2004-04-13 11:24:56 51°27.046 3°11.722 55.1 13.2 46 8
2004-04-13 11:25:56 51°27.192 3°11.981 64 13 57 8
2004-04-13 11:26:56 51°27.334 3°12.243 53.3 13.1 46 8
2004-04-13 11:27:56 51°27.472 3°12.514 57.5 13.2 48 8.2
2004-04-13 11:28:56 51°27.618 3°12.776 60.9 13.2 52 8.3
2004-04-13 11:29:56 51°27.758 3°13.049 64.6 13.2 57 8.3
2004-04-13 11:30:55 51°27.878 3°13.333 62.3 13.1 54 8.4
2004-04-13 11:31:55 51°27.999 3°13.624 63 13.1 54 8.4
2004-04-13 11:32:56 51°28.122 3°13.92 66.3 13.1 58 8.4
2004-04-13 11:33:55 51°28.245 3°14.202 64.4 13.2 56 8.5
2004-04-13 11:34:55 51°28.368 3°14.492 62.7 13.3 54 8.8
2004-04-13 11:35:56 51°28.494 3°14.79 64.2 13.3 55 9.1
2004-04-13 11:36:55 51°28.616 3°15.076 65.1 13 57 8.9
2004-04-13 11:37:56 51°28.741 3°15.369 63.8 13 55 8.7
2004-04-13 11:38:56 51°28.86 3°15.656 64.5 12.4 56 8.5
2004-04-13 11:39:56 51°28.98 3°15.833 39.9 7.1 30 8.5
2004-04-13 11:40:56 51°29.043 3°15.932 69.5 4 57 8.4
2004-04-13 11:41:56 51°29.064 3°15.967 49.6 1.1 15 8.3
2004-04-13 11:42:55 51°29.086 3°15.97 30 1.6 2 8.4
2004-04-13 11:43:56 51°29.115 3°15.965 17.2 1.8 350 8.4
2004-04-13 11:44:56 51°29.144 3°15.949 3.4 2 337 8.5
2004-04-13 11:45:56 51°29.174 3°15.919 346.7 2.1 323 8.4
2004-04-13 11:46:56 51°29.2 3°15.877 330.8 2.3 307 8.4
2004-04-13 11:47:55 51°29.222 3°15.825 317.6 2.5 297 8.5
2004-04-13 11:48:56 51°29.241 3°15.765 309.4 2.5 297 8.5
2004-04-13 11:49:56 51°29.258 3°15.701 303.2 2.7 297 8.6
2004-04-13 11:50:56 51°29.273 3°15.634 298.3 2.7 289 8.6
2004-04-13 11:51:56 51°29.287 3°15.564 293.9 2.8 286 8.6
2004-04-13 11:52:56 51°29.299 3°15.491 289.7 2.9 287 8.6
2004-04-13 11:53:56 51°29.31 3°15.393 287.2 6.7 282 8.7
2004-04-13 11:54:55 51°29.349 3°15.092 286.6 13.7 282 8.6
2004-04-13 11:55:56 51°29.412 3°14.723 291.2 14.4 285 8.8
2004-04-13 11:56:55 51°29.474 3°14.356 291.8 14.5 287 9.1
2004-04-13 11:57:56 51°29.538 3°13.976 291 14.6 286 9.3
2004-04-13 11:58:56 51°29.6 3°13.601 289.6 14.6 286 9.4
2004-04-13 11:59:56 51°29.664 3°13.226 289.6 14.6 286 9.8
2004-04-13 12:00:56 51°29.727 3°12.849 289.9 14.7 284 10.3
2004-04-13 12:01:56 51°29.791 3°12.472 290.2 14.7 285 11.4
2004-04-13 12:02:55 51°29.857 3°12.101 293.2 14.7 288 13.3
2004-04-13 12:03:55 51°29.931 3°11.73 293.3 14.6 288 14
2004-04-13 12:04:55 51°30.004 3°11.361 292.6 14.5 288 13.9
2004-04-13 12:05:55 51°30.077 3°10.991 293.2 14.5 287 15.1
2004-04-13 12:06:57 51°30.15 3°10.609 293.2 14.5 287 16.2
2004-04-13 12:07:55 51°30.219 3°10.253 293.2 14.4 287 17
2004-04-13 12:08:56 51°30.292 3°9.881 293.3 14.3 288 17.2
2004-04-13 12:09:56 51°30.363 3°9.515 293.4 14.3 287 17.4
2004-04-13 12:10:56 51°30.434 3°9.152 293.5 14.3 287 18.4
2004-04-13 12:11:56 51°30.504 3°8.789 293.1 14.3 287 18.9
2004-04-13 12:12:56 51°30.575 3°8.424 293.8 14.4 287 21.1
2004-04-13 12:13:57 51°30.646 3°8.052 293.4 14.3 286 22.7
2004-04-13 12:14:56 51°30.712 3°7.692 293.1 14.2 286 22.7
2004-04-13 12:15:56 51°30.778 3°7.327 292.5 14.3 285 23.3
2004-04-13 12:16:57 51°30.847 3°6.957 293.4 14.2 286 22.8
2004-04-13 12:17:56 51°30.912 3°6.609 292.7 12.8 286 22.5
2004-04-13 12:18:55 51°30.958 3°6.355 294.8 7.8 285 21.9
2004-04-13 12:19:55 51°30.971 3°6.185 275.9 5.6 268 23
2004-04-13 12:20:55 51°30.965 3°6.053 274.8 4.5 267 22.2
2004-04-13 12:21:57 51°30.961 3°5.952 283.7 2.9 274 22.1
2004-04-13 12:22:55 51°30.964 3°5.882 291.4 2.6 277 22.6
2004-04-13 12:23:56 51°30.967 3°5.815 288.3 2.4 270 22.6
2004-04-13 12:24:55 51°30.966 3°5.754 281.4 2.3 269 22.5
2004-04-13 12:25:57 51°30.961 3°5.691 275.4 2.2 263 22.8
2004-04-13 12:26:56 51°30.953 3°5.635 270.6 2.2 259 23.5
2004-04-13 12:27:57 51°30.944 3°5.578 268 2.2 252 23.9
2004-04-13 12:28:55 51°30.934 3°5.526 263.8 2.1 254 24
2004-04-13 12:29:55 51°30.919 3°5.477 249.1 2.1 236 22.8
2004-04-13 12:30:55 51°30.899 3°5.431 232.1 2.1 231 23.3
2004-04-13 12:31:57 51°30.873 3°5.394 212.6 2.1 213 23.3
2004-04-13 12:32:55 51°30.843 3°5.371 190.3 2 197 23.5
2004-04-13 12:33:55 51°30.812 3°5.362 167.6 1.9 184 22.8
2004-04-13 12:34:56 51°30.756 3°5.35 198.4 6 206 22.4
2004-04-13 12:35:57 51°30.69 3°5.126 265 12.2 261 23.3
2004-04-13 12:36:56 51°30.749 3°4.787 298.1 13.9 293 24.4
2004-04-13 12:37:56 51°30.837 3°4.441 298.5 14.1 293 25.8
2004-04-13 12:38:57 51°30.951 3°4.107 312.1 14.1 305 26.5
2004-04-13 12:39:55 51°31.08 3°3.807 312 14.2 305 27.7
2004-04-13 12:40:55 51°31.21 3°3.494 311.3 14 304 27.9
2004-04-13 12:41:57 51°31.344 3°3.176 313.5 13.8 306 27.8
2004-04-13 12:42:57 51°31.484 3°2.886 315.5 13.8 307 27.2
2004-04-13 12:43:57 51°31.626 3°2.596 315.5 13.7 309 26.6
2004-04-13 12:44:55 51°31.763 3°2.317 314.8 13.8 308 26.5
2004-04-13 12:45:57 51°31.911 3°2.019 315.4 13.8 309 26.1
2004-04-13 12:46:57 51°32.053 3°1.726 315.7 14 308 25.7
2004-04-13 12:47:55 51°32.193 3°1.445 315.6 13.9 309 23.5
2004-04-13 12:48:57 51°32.355 3°1.168 325.3 13.7 317 24.3
2004-04-13 12:49:55 51°32.515 3°0.93 325.1 13.4 317 24.5
2004-04-13 12:50:56 51°32.682 3°0.677 325 13.6 317 29.9
2004-04-13 12:51:56 51°32.845 3°0.428 324.2 13.5 316 31.8
2004-04-13 12:52:56 51°32.964 3°0.224 310.8 6.5 299 32.8
2004-04-13 12:53:57 51°32.994 3°0.131 328.2 2.1 296 33
2004-04-13 12:54:55 51°33.008 3°0.1 351.2 1.5 313 33
2004-04-13 12:55:57 51°33.027 3°0.076 356.1 1.5 321 33.1
2004-04-13 12:56:56 51°33.047 3°0.048 345.8 1.7 319 32.7
2004-04-13 12:57:56 51°33.065 3°0.007 326.4 2 300 32.6
2004-04-13 12:58:55 51°33.077 2°59.952 306.8 2.4 278 32
2004-04-13 12:59:57 51°33.08 2°59.883 290.3 2.7 267 31.4
2004-04-13 13:00:57 51°33.075 2°59.809 275.1 2.9 260 30.7
2004-04-13 13:01:56 51°33.06 2°59.733 261.3 3.1 249 30
2004-04-13 13:02:55 51°33.036 2°59.658 246.2 3.3 239 29.6
2004-04-13 13:03:56 51°33 2°59.588 229.6 3.3 224 29.5
2004-04-13 13:04:55 51°32.958 2°59.534 211.5 3.3 212 30.1
2004-04-13 13:05:55 51°32.91 2°59.498 192.3 3.2 199 30.7
2004-04-13 13:06:55 51°32.862 2°59.485 171.6 2.8 181 31.7
2004-04-13 13:07:56 51°32.816 2°59.49 153.1 2.7 172 31.4
2004-04-13 13:08:56 51°32.776 2°59.511 134.4 2.3 153 30.6
2004-04-13 13:09:56 51°32.743 2°59.542 120.5 2.2 145 32
2004-04-13 13:10:57 51°32.716 2°59.581 109.1 2.2 130 32
2004-04-13 13:11:56 51°32.649 2°59.756 132.4 11.7 135 31.4
2004-04-13 13:12:56 51°32.433 2°59.852 177.6 14.1 181 31.5
2004-04-13 13:13:56 51°32.203 2°59.738 205 14.7 203 28.9
2004-04-13 13:14:57 51°31.974 2°59.585 205.2 14.8 203 28.6
2004-04-13 13:15:57 51°31.748 2°59.429 205.8 14.5 204 26.5
2004-04-13 13:16:55 51°31.532 2°59.276 204.7 14.6 204 27.6
2004-04-13 13:17:55 51°31.309 2°59.117 205.2 14.8 204 27
2004-04-13 13:18:56 51°31.083 2°58.954 206 14.6 205 26.8
2004-04-13 13:19:56 51°30.858 2°58.811 202.3 14.5 201 26.8
2004-04-13 13:20:56 51°30.631 2°58.677 202.5 14.5 201 27
2004-04-13 13:21:56 51°30.405 2°58.542 202.3 14.5 201 26.8
2004-04-13 13:22:55 51°30.183 2°58.409 202.2 14.5 200 26.1
2004-04-13 13:23:56 51°29.955 2°58.27 203.2 14.5 202 25
2004-04-13 13:24:56 51°29.729 2°58.134 202.7 14.6 201 22.6
2004-04-13 13:25:57 51°29.499 2°57.999 201.9 14.5 200 24.7
2004-04-13 13:26:56 51°29.276 2°57.867 201.7 14.6 200 24.4
2004-04-13 13:27:55 51°29.052 2°57.733 201.5 14.6 200 25.9
2004-04-13 13:28:56 51°28.819 2°57.59 202.5 14.9 201 27.2
2004-04-13 13:29:56 51°28.59 2°57.451 201.9 14.8 201 27.3
2004-04-13 13:30:56 51°28.36 2°57.306 201.9 14.9 201 27.4
2004-04-13 13:31:56 51°28.129 2°57.162 201.8 15 200 26.9
2004-04-13 13:32:56 51°27.899 2°57.016 202.3 14.8 201 27.9
2004-04-13 13:33:56 51°27.67 2°56.865 202.1 15.1 202 26.4
2004-04-13 13:34:55 51°27.446 2°56.715 202 14.7 203 23.5
2004-04-13 13:35:56 51°27.215 2°56.564 202.1 14.6 202 22.5
2004-04-13 13:36:57 51°26.984 2°56.412 201.5 14.8 202 23.8
2004-04-13 13:37:56 51°26.761 2°56.265 202.5 14.6 202 23.5
2004-04-13 13:38:56 51°26.533 2°56.116 202.7 14.6 202 21.4
2004-04-13 13:39:56 51°26.306 2°55.967 201.3 14.7 202 19.7
2004-04-13 13:40:55 51°26.077 2°55.847 196.1 14.8 196 17.8
2004-04-13 13:41:55 51°25.843 2°55.74 195.8 14.5 195 16.9
2004-04-13 13:42:55 51°25.607 2°55.632 196.2 14.8 196 17
2004-04-13 13:43:56 51°25.367 2°55.52 196.7 14.7 196 14.6
2004-04-13 13:44:55 51°25.134 2°55.41 196 14.9 196 18
2004-04-13 13:45:55 51°24.897 2°55.3 196 14.9 196 19.6
2004-04-13 13:46:57 51°24.654 2°55.184 195.3 14.7 196 21.4
2004-04-13 13:47:56 51°24.423 2°55.073 196.1 14.6 197 22
2004-04-13 13:48:56 51°24.188 2°54.956 195.9 15.1 197 21.2
2004-04-13 13:49:57 51°23.949 2°54.838 195.8 15 197 20.2
2004-04-13 13:50:57 51°23.712 2°54.722 195.9 15.1 197 19
2004-04-13 13:51:57 51°23.474 2°54.607 195.9 14.7 196 19.1
2004-04-13 13:52:56 51°23.238 2°54.491 195.7 15.4 196 19
2004-04-13 13:53:55 51°23.002 2°54.378 195.9 15 197 20.6
2004-04-13 13:54:57 51°22.757 2°54.255 195.7 15.1 198 21.6
2004-04-13 13:55:57 51°22.518 2°54.132 196.6 15.2 198 20.6
2004-04-13 13:56:57 51°22.281 2°54.015 195.6 14.7 197 18.9
2004-04-13 13:57:55 51°22.052 2°53.898 197 15 199 18.4
2004-04-13 13:58:56 51°21.813 2°53.776 196 15 198 17.1
2004-04-13 13:59:56 51°21.58 2°53.658 196.8 14.6 197 15.8
2004-04-13 14:00:56 51°21.344 2°53.541 196.3 14.9 197 15.7
2004-04-13 14:01:55 51°21.112 2°53.424 196.6 14.8 197 15.7
2004-04-13 14:02:56 51°20.871 2°53.301 195.9 15 197 15.6
2004-04-13 14:03:56 51°20.634 2°53.182 195.4 14.9 197 15.6
2004-04-13 14:04:55 51°20.4 2°53.061 196.2 15.1 198 15.4
2004-04-13 14:05:57 51°20.155 2°52.934 196.9 15.1 198 15.3
2004-04-13 14:06:57 51°19.916 2°52.833 192.4 14.8 194 15.1
2004-04-13 14:07:55 51°19.686 2°52.736 193.2 14.6 195 14.7
2004-04-13 14:08:56 51°19.445 2°52.63 194.4 14.6 196 14
2004-04-13 14:09:55 51°19.209 2°52.553 188.1 14.8 190 13.1
2004-04-13 14:10:57 51°18.96 2°52.483 188.1 14.6 190 12.1
2004-04-13 14:11:56 51°18.722 2°52.417 188.5 14.5 190 11.3
2004-04-13 14:12:57 51°18.476 2°52.365 182.9 14.6 185 10.7
2004-04-13 14:13:57 51°18.233 2°52.334 182.9 14.6 184 10.2
2004-04-13 14:14:55 51°17.997 2°52.304 181.4 14.7 183 9.7
2004-04-13 14:15:56 51°17.75 2°52.303 176.2 14.4 177 9.7
2004-04-13 14:16:56 51°17.506 2°52.321 176 14.8 177 9.6
2004-04-13 14:17:56 51°17.261 2°52.343 173.6 14.4 173 9.5
2004-04-13 14:18:56 51°17.04 2°52.469 159.1 14.4 160 9
2004-04-13 14:19:57 51°16.815 2°52.605 159.9 14.2 160 8.9
2004-04-13 14:20:56 51°16.594 2°52.739 159 14.5 160 10.6
2004-04-13 14:21:57 51°16.364 2°52.87 158.9 14.4 160 11.5
2004-04-13 14:22:57 51°16.141 2°52.99 158.9 14.1 163 11.5
2004-04-13 14:23:57 51°15.917 2°53.101 159.5 14 163 11.2
2004-04-13 14:24:56 51°15.696 2°53.214 159.6 14.3 162 10.6
2004-04-13 14:25:56 51°15.492 2°53.38 148.5 13.7 151 10.5
2004-04-13 14:26:56 51°15.301 2°53.576 143.2 13.6 146 9.3
2004-04-13 14:27:57 51°15.109 2°53.779 143.7 13.8 146 9
2004-04-13 14:28:56 51°14.931 2°53.989 141.5 13.2 145 8.8
2004-04-13 14:29:56 51°14.754 2°54.215 137.9 13.8 139 9.2
2004-04-13 14:30:56 51°14.593 2°54.468 128.9 13.3 130 9.5
2004-04-13 14:31:56 51°14.476 2°54.753 118.9 12.7 120 9.8
2004-04-13 14:32:57 51°14.368 2°55.039 124.5 11.8 123 10